Time;durP1;ratioP1;P1;durP2;ratioP2;P2;SDS_P1;SDS_P2;PMS_P1;PMS_P2;Temp;Humidity;BMP_temperature;BMP_pressure;BME280_temperature;BME280_humidity;BME280_pressure;Samples;Min_cycle;Max_cycle;Signal;HPM_P1;HPM_P2
2023/01/17 00:01:15;;;;;;;21.80;15.15;;;;;;;-2.09;91.65;146812.75;5080005;28;20021;-65
2023/01/17 00:11:55;;;;;;;24.45;15.30;;;;;;;-2.34;93.11;146751.81;5067817;28;20048;-66
2023/01/17 00:14:20;;;;;;;24.38;15.10;;;;;;;-2.21;93.22;146783.53;5084634;28;20098;-67
2023/01/17 00:16:46;;;;;;;23.45;14.70;;;;;;;-2.10;93.04;146811.44;5071503;28;20248;-67
2023/01/17 01:33:48;;;;;;;19.52;13.95;;;;;;;-2.04;92.42;146824.16;5082810;28;20074;-66
2023/01/17 01:36:14;;;;;;;21.38;13.65;;;;;;;-2.00;92.90;146835.56;5082804;28;20024;-65
2023/01/17 01:38:40;;;;;;;20.92;12.77;;;;;;;-2.15;92.32;146797.50;5082855;28;20027;-66
2023/01/17 01:41:05;;;;;;;19.13;13.60;;;;;;;-2.06;93.01;146819.09;5082834;28;20028;-66
2023/01/17 01:43:45;;;;;;;17.45;13.18;;;;;;;-2.03;92.54;146827.97;5082324;28;20040;-65
2023/01/17 01:46:17;;;;;;;18.90;13.82;;;;;;;-1.98;92.61;146840.69;5082712;28;20043;-66
2023/01/17 01:49:20;;;;;;;17.23;12.25;;;;;;;-2.00;92.25;146834.31;5082769;28;20118;-65
2023/01/17 01:51:58;;;;;;;21.17;13.90;;;;;;;-2.14;92.87;146801.34;5081754;28;20051;-65
2023/01/17 01:54:39;;;;;;;17.60;13.32;;;;;;;-1.90;92.18;146859.69;5082571;28;20045;-65
2023/01/17 01:57:08;;;;;;;20.58;14.38;;;;;;;-1.93;92.37;146852.09;5062655;28;20032;-65
2023/01/17 01:59:38;;;;;;;20.08;14.05;;;;;;;-1.97;92.12;146841.94;5079227;28;20070;-64
2023/01/17 02:02:06;;;;;;;18.50;12.70;;;;;;;-1.82;92.17;146878.75;5082482;28;20254;-64
2023/01/17 02:04:31;;;;;;;19.77;13.82;;;;;;;-1.75;91.10;146896.53;5082398;28;20111;-65
2023/01/17 02:07:09;;;;;;;22.40;15.02;;;;;;;-1.77;91.58;146891.41;5082474;28;20024;-65
2023/01/17 02:09:35;;;;;;;18.15;12.60;;;;;;;-2.02;91.84;146830.50;5082545;28;20228;-65
2023/01/17 02:12:02;;;;;;;18.17;13.27;;;;;;;-1.85;91.70;146872.41;5082165;28;20031;-66
2023/01/17 02:14:28;;;;;;;18.00;12.93;;;;;;;-1.81;91.86;146882.56;5082281;28;20320;-66
2023/01/17 02:16:59;;;;;;;18.40;13.73;;;;;;;-1.87;91.93;146866.03;5082320;28;20040;-67
2023/01/17 02:19:59;;;;;;;21.20;13.23;;;;;;;-1.67;92.23;146916.81;5084482;28;20236;-66
2023/01/17 02:22:43;;;;;;;21.95;13.88;;;;;;;-1.79;92.27;146886.38;5082130;28;20040;-65
2023/01/17 02:25:26;;;;;;;20.02;14.38;;;;;;;-1.70;92.34;146909.19;5082425;28;20096;-65
2023/01/17 02:28:09;;;;;;;18.27;12.95;;;;;;;-1.65;91.81;146921.91;5067030;28;20092;-65
2023/01/17 02:30:40;;;;;;;22.02;14.77;;;;;;;-1.79;91.43;146886.38;5069529;28;20035;-65
2023/01/17 02:33:24;;;;;;;21.30;14.07;;;;;;;-1.75;91.10;146897.78;5062235;28;20028;-65
2023/01/17 02:36:16;;;;;;;20.52;14.13;;;;;;;-1.82;91.06;146878.75;5080015;28;20029;-66
2023/01/17 02:39:12;;;;;;;19.25;13.75;;;;;;;-2.09;92.47;146812.75;5074241;28;20055;-65
2023/01/17 02:41:40;;;;;;;19.88;12.82;;;;;;;-2.23;92.63;146777.22;5072609;28;20040;-65
2023/01/17 02:44:14;;;;;;;20.70;14.02;;;;;;;-2.00;92.82;146835.56;5081992;28;20100;-65
2023/01/17 02:46:54;;;;;;;20.27;14.95;;;;;;;-1.95;92.87;146847.03;5082234;28;20312;-65
2023/01/17 02:49:24;;;;;;;20.92;14.48;;;;;;;-1.88;92.36;146863.50;5081983;28;20062;-65
2023/01/17 02:52:16;;;;;;;26.50;15.75;;;;;;;-2.00;92.11;146834.31;5082028;28;20036;-66
2023/01/17 02:54:54;;;;;;;21.85;15.02;;;;;;;-1.78;91.82;146890.16;5082160;28;20071;-66
2023/01/17 02:57:57;;;;;;;21.55;14.60;;;;;;;-1.86;91.57;146868.59;5061963;28;20031;-65
2023/01/17 03:00:22;;;;;;;22.27;14.63;;;;;;;-1.86;91.51;146868.59;5063678;28;20047;-66
2023/01/17 03:03:00;;;;;;;21.90;15.30;;;;;;;-1.98;92.75;146840.69;5064266;28;20078;-65
2023/01/17 03:05:38;;;;;;;20.05;14.15;;;;;;;-1.83;91.60;146876.19;5081790;28;20032;-65
2023/01/17 03:08:05;;;;;;;19.38;14.85;;;;;;;-1.92;92.07;146854.63;5081690;28;20094;-66
2023/01/17 03:10:33;;;;;;;20.88;13.95;;;;;;;-1.85;91.42;146871.09;5081792;28;20024;-65
2023/01/17 03:13:00;;;;;;;23.73;15.35;;;;;;;-1.88;90.70;146863.50;5081774;28;20032;-65
2023/01/17 03:15:25;;;;;;;20.98;14.30;;;;;;;-1.63;91.25;146926.97;5081593;28;20320;-66
2023/01/17 03:17:54;;;;;;;23.13;14.65;;;;;;;-1.64;90.79;146923.16;5081705;28;20039;-65
2023/01/17 03:20:19;;;;;;;19.92;14.32;;;;;;;-1.69;90.46;146911.75;5077379;28;20092;-65
2023/01/17 03:22:45;;;;;;;23.80;15.25;;;;;;;-1.66;91.39;146918.09;5081818;28;20032;-65
2023/01/17 03:25:11;;;;;;;19.15;14.45;;;;;;;-1.80;90.28;146883.81;5065830;28;20159;-66
2023/01/17 03:27:36;;;;;;;21.10;14.07;;;;;;;-1.86;90.71;146868.59;5075026;28;20024;-65
2023/01/17 03:30:03;;;;;;;21.42;14.27;;;;;;;-1.79;91.52;146886.38;5085769;28;20259;-66
2023/01/17 03:32:29;;;;;;;20.13;14.20;;;;;;;-1.76;91.86;146895.22;5085502;28;20031;-65
2023/01/17 03:34:54;;;;;;;18.70;13.27;;;;;;;-1.84;90.79;146874.94;5085252;28;20024;-64
2023/01/17 03:37:20;;;;;;;20.85;14.93;;;;;;;-1.85;91.91;146871.09;5085228;28;20095;-66
2023/01/17 03:39:45;;;;;;;19.20;13.68;;;;;;;-1.66;91.04;146918.09;5085157;28;20029;-65
2023/01/17 03:42:11;;;;;;;20.67;13.73;;;;;;;-1.70;91.06;146909.19;5085003;28;20043;-65
2023/01/17 03:44:36;;;;;;;23.33;14.60;;;;;;;-1.77;91.45;146891.41;5084416;28;20060;-65
2023/01/17 03:47:02;;;;;;;16.67;13.35;;;;;;;-1.61;91.36;146932.06;5084982;28;20035;-65
2023/01/17 03:49:28;;;;;;;22.42;14.50;;;;;;;-1.58;90.38;146938.44;5084990;28;20044;-66
2023/01/17 03:51:53;;;;;;;20.27;13.23;;;;;;;-1.69;90.50;146911.75;5084921;28;20236;-65
2023/01/17 03:54:19;;;;;;;19.88;13.52;;;;;;;-1.88;91.26;146864.78;5084888;28;20059;-65
2023/01/17 03:56:44;;;;;;;21.25;14.75;;;;;;;-1.66;90.77;146919.34;5084879;28;20060;-65
2023/01/17 03:59:10;;;;;;;22.95;14.57;;;;;;;-1.82;91.48;146878.75;5084836;28;20320;-65
2023/01/17 04:01:36;;;;;;;20.92;15.60;;;;;;;-1.76;91.27;146893.97;5084486;28;20305;-66
2023/01/17 04:04:01;;;;;;;19.70;13.63;;;;;;;-1.71;91.03;146906.69;5084795;28;20025;-66
2023/01/17 04:06:27;;;;;;;21.05;14.55;;;;;;;-1.81;91.71;146882.56;5084677;28;20208;-66
2023/01/17 04:08:53;;;;;;;21.55;14.15;;;;;;;-1.60;91.46;146934.56;5084696;28;20032;-66
2023/01/17 04:11:19;;;;;;;18.90;13.98;;;;;;;-1.77;92.49;146891.41;5084596;28;20028;-67
2023/01/17 04:13:44;;;;;;;20.98;13.85;;;;;;;-1.69;91.13;146911.75;5084498;28;20056;-65
2023/01/17 04:16:16;;;;;;;20.13;14.65;;;;;;;-1.68;91.14;146914.28;5084262;28;20047;-65
2023/01/17 04:18:42;;;;;;;23.25;13.77;;;;;;;-1.64;90.87;146923.16;5084414;28;20025;-65
2023/01/17 04:21:07;;;;;;;20.05;13.48;;;;;;;-1.73;91.17;146902.84;5065270;28;20092;-66
2023/01/17 04:23:33;;;;;;;24.58;13.93;;;;;;;-1.89;91.85;146862.25;5078589;28;20027;-66
2023/01/17 04:25:59;;;;;;;18.85;12.50;;;;;;;-1.96;92.01;146845.72;5084183;28;20105;-66
2023/01/17 04:28:24;;;;;;;17.63;13.55;;;;;;;-1.76;92.85;146893.97;5084188;28;20040;-66
2023/01/17 04:30:50;;;;;;;19.38;13.02;;;;;;;-1.75;92.43;146896.53;5084194;28;20028;-66
2023/01/17 04:33:17;;;;;;;22.73;14.07;;;;;;;-1.81;92.36;146881.25;5084244;28;20301;-66
2023/01/17 04:35:42;;;;;;;19.08;13.88;;;;;;;-1.69;92.98;146911.75;5083035;28;20028;-66
2023/01/17 04:38:08;;;;;;;19.77;13.90;;;;;;;-1.82;91.89;146878.75;5084080;28;20028;-65
2023/01/17 04:40:33;;;;;;;20.13;13.73;;;;;;;-1.86;92.28;146868.59;5083903;28;20028;-66
2023/01/17 04:42:59;;;;;;;22.85;14.43;;;;;;;-1.64;94.32;146923.16;5083989;28;20260;-67
2023/01/17 04:45:24;;;;;;;21.38;14.18;;;;;;;-1.74;93.13;146899.03;5083947;28;20051;-66
2023/01/17 04:47:50;;;;;;;19.73;14.05;;;;;;;-1.62;93.25;146929.50;5083808;28;20231;-66
2023/01/17 04:50:17;;;;;;;21.00;14.48;;;;;;;-1.63;92.36;146926.97;5083918;28;20031;-65
2023/01/17 04:52:42;;;;;;;22.13;14.68;;;;;;;-1.48;92.35;146962.50;5083875;28;20048;-65
2023/01/17 04:55:08;;;;;;;23.05;15.30;;;;;;;-1.43;91.57;146975.22;5084024;28;20035;-66
2023/01/17 04:57:33;;;;;;;22.35;14.35;;;;;;;-1.43;91.50;146976.47;5066054;28;20332;-65
2023/01/17 04:59:59;;;;;;;20.55;14.07;;;;;;;-1.50;91.97;146958.69;5084144;28;20024;-66
2023/01/17 05:02:25;;;;;;;23.38;14.18;;;;;;;-1.40;91.37;146984.13;5083701;28;20053;-65
2023/01/17 05:04:51;;;;;;;21.45;14.88;;;;;;;-1.49;91.12;146960.00;5083646;28;20394;-65
2023/01/17 05:07:16;;;;;;;22.48;14.73;;;;;;;-1.40;90.77;146982.84;5083422;28;20028;-66
2023/01/17 05:09:42;;;;;;;21.35;15.07;;;;;;;-1.51;91.77;146954.91;5083660;28;20044;-66
2023/01/17 05:12:08;;;;;;;23.45;14.52;;;;;;;-1.47;90.77;146965.06;5083771;28;20066;-65
2023/01/17 05:14:34;;;;;;;21.70;14.48;;;;;;;-1.52;91.83;146952.38;5083486;28;20084;-65
2023/01/17 05:17:01;;;;;;;20.60;14.45;;;;;;;-1.40;91.83;146984.13;5083698;28;20020;-66
2023/01/17 05:19:27;;;;;;;26.05;14.93;;;;;;;-1.39;92.21;146985.38;5083009;28;20029;-66
2023/01/17 05:21:53;;;;;;;21.23;14.70;;;;;;;-1.47;91.53;146965.06;5083554;28;20028;-68
2023/01/17 05:24:19;;;;;;;26.95;15.70;;;;;;;-1.44;92.34;146972.66;5083237;28;20088;-66
2023/01/17 05:26:53;;;;;;;18.75;14.40;;;;;;;-1.61;91.52;146932.06;5083236;28;20020;-65
2023/01/17 05:29:19;;;;;;;19.83;13.93;;;;;;;-1.47;91.18;146966.34;5083157;28;20173;-67
2023/01/17 05:31:45;;;;;;;23.13;13.68;;;;;;;-1.57;91.27;146940.94;5083250;28;20024;-67
2023/01/17 05:34:11;;;;;;;20.48;14.20;;;;;;;-1.40;91.16;146984.13;5082991;28;20051;-67
2023/01/17 05:36:36;;;;;;;22.15;13.52;;;;;;;-1.67;91.76;146916.81;5061974;28;20028;-66
2023/01/17 05:39:02;;;;;;;19.40;14.25;;;;;;;-1.48;91.51;146962.50;5083194;28;20023;-66
2023/01/17 05:41:28;;;;;;;21.00;14.25;;;;;;;-1.63;93.00;146925.72;5075048;28;20058;-67
2023/01/17 05:43:53;;;;;;;21.90;15.50;;;;;;;-1.38;91.89;146987.94;5072786;28;20071;-67
2023/01/17 05:46:19;;;;;;;24.13;13.95;;;;;;;-1.55;92.44;146946.03;5082883;28;20067;-67
2023/01/17 05:48:44;;;;;;;25.23;14.68;;;;;;;-1.59;92.72;146935.88;5082745;28;20031;-67
2023/01/17 05:51:10;;;;;;;22.00;14.02;;;;;;;-1.49;93.02;146961.25;5082602;28;20052;-67
2023/01/17 05:53:36;;;;;;;25.15;14.45;;;;;;;-1.29;92.71;147009.53;5082547;28;20367;-67
2023/01/17 05:56:01;;;;;;;20.92;14.20;;;;;;;-1.41;92.53;146980.28;5082676;28;20029;-67
2023/01/17 05:58:27;;;;;;;21.98;14.60;;;;;;;-1.24;91.58;147023.50;5082566;28;20029;-66
2023/01/17 06:00:54;;;;;;;28.42;14.75;;;;;;;-1.33;92.81;146999.34;5082939;28;20052;-67
2023/01/17 06:03:19;;;;;;;29.90;16.30;;;;;;;-1.25;91.63;147019.69;5062572;28;20025;-66
2023/01/17 06:05:46;;;;;;;24.63;14.98;;;;;;;-1.20;91.92;147031.09;5077795;28;20066;-67
2023/01/17 06:08:12;;;;;;;23.05;14.00;;;;;;;-1.25;92.29;147020.94;5082743;28;20052;-67
2023/01/17 06:10:37;;;;;;;20.02;14.88;;;;;;;-1.31;92.82;147005.72;5082513;28;20048;-66
2023/01/17 06:13:08;;;;;;;22.80;14.05;;;;;;;-1.27;93.07;147015.88;5082321;28;20465;-67
2023/01/17 06:15:36;;;;;;;23.85;13.98;;;;;;;-1.49;91.75;146960.00;5082482;28;20092;-66
2023/01/17 06:18:09;;;;;;;19.08;14.02;;;;;;;-1.51;92.35;146956.19;5082601;28;20312;-67
2023/01/17 06:20:35;;;;;;;24.92;15.57;;;;;;;-1.23;93.21;147024.75;5076413;28;20055;-67
2023/01/17 06:23:06;;;;;;;22.27;13.98;;;;;;;-1.20;93.25;147032.34;5082345;28;20313;-66
2023/01/17 06:25:36;;;;;;;19.27;12.88;;;;;;;-1.42;92.12;146977.78;5082302;28;20043;-66
2023/01/17 06:28:01;;;;;;;21.88;15.02;;;;;;;-1.17;92.62;147038.72;5067956;28;20025;-67
2023/01/17 06:30:27;;;;;;;22.02;14.02;;;;;;;-1.15;93.20;147043.81;5068347;28;20074;-67
2023/01/17 06:32:53;;;;;;;21.00;14.20;;;;;;;-1.15;91.86;147045.06;5082233;28;20062;-66
2023/01/17 06:35:20;;;;;;;19.05;13.32;;;;;;;-1.39;92.35;146985.38;5082040;28;20044;-66
2023/01/17 06:37:49;;;;;;;19.00;13.82;;;;;;;-1.40;92.41;146982.84;5082489;28;20033;-66
2023/01/17 06:40:15;;;;;;;22.60;14.68;;;;;;;-1.17;93.02;147038.72;5082128;28;20024;-66
2023/01/17 06:42:40;;;;;;;21.83;14.30;;;;;;;-1.30;93.24;147008.22;5081963;28;20060;-66
2023/01/17 06:45:07;;;;;;;22.48;14.35;;;;;;;-1.27;92.11;147015.88;5082141;28;20037;-66
2023/01/17 06:47:37;;;;;;;21.90;14.48;;;;;;;-1.29;92.72;147010.78;5081947;28;20283;-67
2023/01/17 06:50:02;;;;;;;22.23;14.73;;;;;;;-1.13;92.74;147050.13;5082130;28;20036;-66
2023/01/17 06:52:29;;;;;;;23.25;15.02;;;;;;;-1.07;93.04;147064.09;5082105;28;20283;-67
2023/01/17 06:54:54;;;;;;;21.52;13.65;;;;;;;-1.33;92.59;146999.34;5064179;28;20025;-67
2023/01/17 06:57:20;;;;;;;20.23;14.48;;;;;;;-1.08;93.25;147061.59;5081766;28;20032;-66
2023/01/17 06:59:46;;;;;;;20.77;14.35;;;;;;;-1.20;92.28;147032.34;5083814;28;20036;-67
2023/01/17 07:02:11;;;;;;;21.15;14.85;;;;;;;-1.19;92.16;147034.91;5082630;28;20244;-66
2023/01/17 07:04:37;;;;;;;23.23;16.02;;;;;;;-1.05;92.83;147069.22;5075510;28;20048;-67
2023/01/17 07:07:02;;;;;;;21.42;14.75;;;;;;;-1.17;93.38;147038.72;5076184;28;20028;-67
2023/01/17 07:09:28;;;;;;;22.67;15.02;;;;;;;-1.12;92.86;147052.69;5076788;28;20028;-67
2023/01/17 07:11:58;;;;;;;24.48;16.38;;;;;;;-0.96;92.81;147092.06;5076640;28;20044;-66
2023/01/17 07:14:24;;;;;;;20.00;15.18;;;;;;;-0.93;92.46;147098.41;5076612;28;20095;-66
2023/01/17 07:16:49;;;;;;;23.10;14.70;;;;;;;-1.02;92.46;147075.56;5078503;28;20047;-66
2023/01/17 07:19:15;;;;;;;25.50;16.15;;;;;;;-1.00;92.43;147081.88;5084684;28;20035;-67
2023/01/17 07:21:41;;;;;;;22.63;14.88;;;;;;;-0.99;92.20;147084.44;5085329;28;20039;-67
2023/01/17 07:24:07;;;;;;;24.55;15.60;;;;;;;-0.94;92.73;147097.16;5067843;28;20091;-66
2023/01/17 07:26:36;;;;;;;22.13;14.82;;;;;;;-0.95;91.51;147093.34;5083076;28;20021;-67
2023/01/17 07:29:05;;;;;;;23.77;15.50;;;;;;;-1.07;91.98;147065.41;5083315;28;20052;-66
2023/01/17 07:31:36;;;;;;;23.10;15.38;;;;;;;-0.82;92.11;147126.38;5085012;28;20039;-66
2023/01/17 07:34:03;;;;;;;23.38;16.10;;;;;;;-0.88;91.74;147111.13;5067541;28;20024;-67
2023/01/17 07:36:28;;;;;;;25.98;15.70;;;;;;;-0.91;92.44;147103.53;5085237;28;20261;-67
2023/01/17 07:38:54;;;;;;;21.55;14.73;;;;;;;-0.77;92.19;147139.09;5051949;28;20378;-68
2023/01/17 07:41:21;;;;;;;24.05;15.57;;;;;;;-0.77;91.90;147137.78;5076122;28;20058;-66
2023/01/17 07:43:46;;;;;;;26.70;16.65;;;;;;;-0.82;92.60;147126.38;5085368;28;20071;-67
2023/01/17 07:46:14;;;;;;;24.88;16.58;;;;;;;-0.87;92.26;147114.94;5084409;28;20032;-67
2023/01/17 07:48:40;;;;;;;22.38;15.43;;;;;;;-0.75;93.07;147142.91;5085107;28;20040;-67
2023/01/17 07:51:06;;;;;;;25.80;16.13;;;;;;;-0.72;92.22;147150.50;5085001;28;20033;-66
2023/01/17 07:53:32;;;;;;;24.15;15.57;;;;;;;-0.83;92.64;147122.56;5084767;28;20496;-67
2023/01/17 07:56:03;;;;;;;22.88;16.15;;;;;;;-0.85;92.66;147117.50;5079238;28;20029;-67
2023/01/17 07:58:30;;;;;;;23.35;14.85;;;;;;;-0.84;92.52;147121.31;5082011;28;20032;-67
2023/01/17 08:01:08;;;;;;;28.83;17.48;;;;;;;-0.78;92.75;147136.53;5083033;28;20036;-67
2023/01/17 08:03:38;;;;;;;26.80;17.02;;;;;;;-0.78;93.00;147135.28;5072987;28;20108;-67
2023/01/17 08:06:05;;;;;;;25.00;15.77;;;;;;;-0.73;93.03;147149.25;5084615;28;20036;-67
2023/01/17 08:08:31;;;;;;;26.25;17.33;;;;;;;-0.77;91.89;147139.09;5072643;28;20308;-66
2023/01/17 08:10:56;;;;;;;27.20;17.77;;;;;;;-0.75;93.52;147144.16;5053865;28;20024;-67
2023/01/17 08:13:22;;;;;;;24.35;17.58;;;;;;;-0.70;92.15;147155.56;5084438;28;20036;-68
2023/01/17 08:15:49;;;;;;;25.90;17.48;;;;;;;-0.82;93.00;147126.38;5083721;28;20031;-67
2023/01/17 08:18:15;;;;;;;25.75;17.35;;;;;;;-0.74;93.34;147145.41;5066486;28;20029;-68
2023/01/17 08:20:44;;;;;;;26.52;17.67;;;;;;;-0.77;93.28;147139.09;5071031;28;20131;-67
2023/01/17 08:23:10;;;;;;;26.30;17.50;;;;;;;-0.64;92.17;147170.84;5073645;28;20039;-68
2023/01/17 08:25:36;;;;;;;24.75;17.60;;;;;;;-0.53;92.64;147198.81;5078797;28;20025;-67
2023/01/17 08:28:02;;;;;;;29.67;18.88;;;;;;;-0.51;91.99;147202.63;5078761;28;20033;-67
2023/01/17 08:30:28;;;;;;;27.33;18.70;;;;;;;-0.52;92.10;147200.06;5083722;28;20067;-68
2023/01/17 08:32:53;;;;;;;24.15;17.55;;;;;;;-0.50;92.20;147203.88;5051478;28;20213;-67
2023/01/17 08:35:19;;;;;;;27.83;18.80;;;;;;;-0.55;93.28;147192.44;5073546;28;20059;-67
2023/01/17 08:37:46;;;;;;;32.38;19.95;;;;;;;-0.52;93.23;147201.31;5069701;28;20021;-67
2023/01/17 08:40:15;;;;;;;26.77;17.17;;;;;;;-0.45;92.94;147216.59;5083960;28;20087;-67
2023/01/17 08:42:42;;;;;;;26.77;17.88;;;;;;;-0.38;93.50;147235.63;5083878;28;20113;-67
2023/01/17 08:45:10;;;;;;;30.63;18.38;;;;;;;-0.26;92.57;147263.59;5064020;28;20109;-67
2023/01/17 08:47:36;;;;;;;27.35;18.38;;;;;;;-0.27;92.67;147261.03;5063797;28;20059;-67
2023/01/17 08:50:05;;;;;;;27.85;17.85;;;;;;;-0.24;92.99;147269.97;5064231;28;20056;-68
2023/01/17 08:52:31;;;;;;;40.00;20.35;;;;;;;-0.23;92.82;147272.53;5063743;28;20025;-67
2023/01/17 08:54:57;;;;;;;29.17;18.88;;;;;;;-0.25;92.63;147267.41;5063772;28;20060;-68
2023/01/17 08:57:23;;;;;;;27.20;18.35;;;;;;;-0.02;92.87;147323.34;5063412;28;20094;-67
2023/01/17 08:59:48;;;;;;;28.83;17.95;;;;;;;-0.20;92.48;147278.84;5063611;28;20037;-67
2023/01/17 09:02:15;;;;;;;31.75;19.23;;;;;;;-0.15;93.29;147291.56;5063309;28;20048;-67
2023/01/17 09:04:48;;;;;;;30.00;18.73;;;;;;;-0.19;92.61;147281.41;5068288;28;20028;-66
2023/01/17 09:07:16;;;;;;;32.38;20.60;;;;;;;0.00;92.53;147328.47;5066353;28;20028;-67
2023/01/17 09:09:42;;;;;;;28.20;18.23;;;;;;;0.02;92.31;147333.53;5063441;28;20028;-67
2023/01/17 09:12:08;;;;;;;33.22;19.98;;;;;;;0.02;92.08;147333.53;5062737;28;20032;-69
2023/01/17 09:14:34;;;;;;;29.98;18.85;;;;;;;-0.02;92.27;147324.59;5062553;28;20066;-67
2023/01/17 09:17:01;;;;;;;32.45;20.00;;;;;;;-0.14;92.47;147294.13;5063371;28;20049;-68
2023/01/17 09:19:27;;;;;;;32.88;19.85;;;;;;;0.03;92.38;147336.06;5052362;28;20029;-67
2023/01/17 09:21:52;;;;;;;31.25;19.35;;;;;;;0.01;91.68;147329.72;5044998;28;20040;-68
2023/01/17 09:24:19;;;;;;;28.65;19.45;;;;;;;-0.11;92.30;147300.50;5063313;28;20322;-67
2023/01/17 09:26:44;;;;;;;35.05;19.80;;;;;;;-0.02;92.51;147323.34;5063015;28;20258;-67
2023/01/17 09:29:12;;;;;;;33.25;20.65;;;;;;;0.12;92.03;147358.94;5063294;28;20028;-67
2023/01/17 09:31:40;;;;;;;35.70;19.33;;;;;;;0.03;92.10;147334.78;5063138;28;20104;-67
2023/01/17 09:34:06;;;;;;;30.00;18.88;;;;;;;0.09;92.19;147350.06;5062741;28;20025;-68
2023/01/17 09:36:32;;;;;;;34.20;20.02;;;;;;;0.22;92.39;147381.84;5044611;28;20029;-67
2023/01/17 09:38:58;;;;;;;33.45;19.85;;;;;;;0.10;91.44;147352.56;5062348;28;20079;-68
2023/01/17 09:41:40;;;;;;;33.00;20.90;;;;;;;0.30;91.98;147402.16;5053133;28;20032;-67
2023/01/17 09:44:20;;;;;;;33.95;19.15;;;;;;;0.09;91.59;147350.06;5074670;28;20074;-68
2023/01/17 09:46:49;;;;;;;33.83;20.23;;;;;;;0.03;92.90;147336.06;5082810;28;20035;-68
2023/01/17 09:49:33;;;;;;;34.97;20.27;;;;;;;0.27;92.86;147394.53;5064979;28;20029;-68
2023/01/17 09:52:00;;;;;;;32.10;20.42;;;;;;;0.22;92.95;147381.84;5082943;28;20040;-67
2023/01/17 09:54:39;;;;;;;33.45;19.73;;;;;;;0.15;93.04;147366.56;5082473;28;20032;-67
2023/01/17 09:57:27;;;;;;;38.78;20.60;;;;;;;0.33;92.48;147409.84;5082767;28;20024;-68
2023/01/17 10:00:11;;;;;;;34.03;20.15;;;;;;;0.15;91.88;147365.31;5082563;28;20085;-67
2023/01/17 10:03:01;;;;;;;30.30;19.27;;;;;;;0.12;92.39;147358.94;5082591;28;20620;-68
2023/01/17 10:05:48;;;;;;;32.70;20.75;;;;;;;0.25;92.27;147389.47;5082343;28;20032;-67
2023/01/17 10:08:43;;;;;;;34.95;19.85;;;;;;;0.28;93.21;147397.09;5082090;28;20028;-68
2023/01/17 10:11:11;;;;;;;34.38;20.08;;;;;;;0.21;93.08;147379.28;5055199;28;20036;-67
2023/01/17 10:13:58;;;;;;;34.50;20.23;;;;;;;0.23;92.34;147384.38;5081251;28;20131;-68
2023/01/17 10:17:08;;;;;;;31.65;20.00;;;;;;;0.33;92.70;147411.09;5080508;28;20036;-68
2023/01/17 10:19:39;;;;;;;36.05;20.95;;;;;;;0.34;92.39;147412.34;5054735;28;20041;-67
2023/01/17 10:22:14;;;;;;;34.83;19.52;;;;;;;0.23;92.58;147384.38;5044783;28;20029;-68
2023/01/17 10:24:51;;;;;;;30.90;20.08;;;;;;;0.31;92.47;147404.72;5044659;28;20040;-68
2023/01/17 10:27:26;;;;;;;35.55;22.05;;;;;;;0.30;92.48;147403.47;5061782;28;20193;-68
2023/01/17 10:29:53;;;;;;;36.50;20.42;;;;;;;0.45;93.28;147440.31;5082076;28;20360;-68
2023/01/17 10:32:23;;;;;;;31.45;20.67;;;;;;;0.40;92.77;147426.34;5081967;28;20313;-68
2023/01/17 10:34:50;;;;;;;36.20;20.80;;;;;;;0.59;92.39;147473.44;5082903;28;20104;-68
2023/01/17 10:37:23;;;;;;;33.80;20.02;;;;;;;0.46;91.57;147442.88;5065210;28;20028;-69
2023/01/17 10:39:50;;;;;;;37.92;20.60;;;;;;;0.38;92.64;147421.25;5063890;28;20107;-68
2023/01/17 10:42:27;;;;;;;33.03;20.38;;;;;;;0.47;92.55;147445.44;5082523;28;20036;-69
2023/01/17 10:45:06;;;;;;;34.17;20.98;;;;;;;0.42;92.71;147431.44;5082198;28;20062;-68
2023/01/17 10:47:36;;;;;;;36.10;21.02;;;;;;;0.48;92.59;147447.94;5081947;28;20305;-67
2023/01/17 10:50:04;;;;;;;38.83;21.42;;;;;;;0.50;92.58;147451.81;5082116;28;20100;-66
2023/01/17 10:52:47;;;;;;;40.17;21.60;;;;;;;0.63;92.91;147484.88;5079275;28;20301;-67
2023/01/17 10:55:16;;;;;;;39.95;22.30;;;;;;;0.62;92.69;147481.06;5062402;28;20029;-68
2023/01/17 10:57:44;;;;;;;36.33;21.23;;;;;;;0.51;91.87;147454.31;5081858;28;20032;-68
2023/01/17 11:00:42;;;;;;;37.65;21.30;;;;;;;0.66;92.39;147492.50;5081670;28;20090;-68
2023/01/17 11:03:12;;;;;;;43.08;22.83;;;;;;;0.60;92.66;147477.25;5081842;28;20067;-67
2023/01/17 11:05:42;;;;;;;39.20;23.83;;;;;;;0.57;93.15;147468.31;5081711;28;20331;-68
2023/01/17 11:08:12;;;;;;;36.75;22.98;;;;;;;0.57;92.27;147469.63;5081904;28;20364;-67
2023/01/17 11:10:46;;;;;;;39.85;23.50;;;;;;;0.60;92.67;147475.94;5081755;28;20055;-68
2023/01/17 11:13:30;;;;;;;41.47;23.35;;;;;;;0.67;92.61;147495.03;5082200;28;20036;-68
2023/01/17 11:16:15;;;;;;;40.17;22.42;;;;;;;0.67;92.44;147493.75;5061934;28;20029;-67
2023/01/17 11:18:41;;;;;;;37.28;22.65;;;;;;;0.74;92.07;147510.28;5065380;28;20029;-68
2023/01/17 11:21:22;;;;;;;45.20;25.95;;;;;;;0.68;92.15;147496.28;5081862;28;20059;-68
2023/01/17 11:23:55;;;;;;;43.53;23.42;;;;;;;0.81;91.82;147528.09;5081822;28;20047;-67
2023/01/17 11:26:33;;;;;;;42.55;23.83;;;;;;;0.58;92.04;147472.13;5052861;28;20309;-68
2023/01/17 11:29:31;;;;;;;41.88;23.40;;;;;;;0.81;92.09;147529.41;5078938;28;20297;-67
2023/01/17 11:31:57;;;;;;;45.20;24.48;;;;;;;0.75;92.10;147512.84;5073585;28;20055;-67
2023/01/17 11:34:25;;;;;;;40.70;24.08;;;;;;;0.57;92.71;147468.31;5081396;28;20028;-68
2023/01/17 11:37:18;;;;;;;38.67;22.85;;;;;;;0.64;93.13;147486.13;5081950;28;20052;-67
2023/01/17 11:39:46;;;;;;;41.15;23.17;;;;;;;0.72;92.37;147506.47;5041934;28;20044;-67
2023/01/17 11:42:33;;;;;;;44.95;26.02;;;;;;;0.83;92.16;147533.22;5077560;28;20024;-68
2023/01/17 11:45:27;;;;;;;42.75;25.05;;;;;;;0.77;92.34;147517.91;5078422;28;20040;-68
2023/01/17 11:48:11;;;;;;;41.13;23.90;;;;;;;0.82;91.79;147531.91;5085175;28;20028;-67
2023/01/17 11:51:24;;;;;;;40.97;24.90;;;;;;;0.66;92.37;147491.22;5085091;28;20095;-68
2023/01/17 11:53:53;;;;;;;41.00;24.10;;;;;;;0.64;92.63;147487.41;5038726;28;20045;-68
2023/01/17 11:56:35;;;;;;;41.10;24.13;;;;;;;0.73;92.71;147509.03;5078452;28;20095;-67
2023/01/17 11:59:17;;;;;;;40.03;23.52;;;;;;;0.89;91.86;147547.22;5085393;28;20043;-68
2023/01/17 12:02:32;;;;;;;42.47;25.30;;;;;;;0.89;92.10;147547.22;5075861;28;20024;-68
2023/01/17 12:05:26;;;;;;;41.50;25.55;;;;;;;1.02;91.70;147581.53;5053280;28;20067;-69
2023/01/17 12:08:12;;;;;;;40.20;24.88;;;;;;;0.87;91.66;147543.41;5077406;28;20017;-67
2023/01/17 12:10:47;;;;;;;39.25;24.17;;;;;;;1.02;91.99;147580.28;5080442;28;20042;-67
2023/01/17 12:16:29;;;;;;;39.60;24.40;;;;;;;1.06;90.56;147589.19;5073923;28;20028;-68
2023/01/17 12:19:22;;;;;;;35.53;22.73;;;;;;;1.12;91.23;147605.72;5074581;28;20025;-68
2023/01/17 12:22:28;;;;;;;40.08;23.58;;;;;;;1.07;91.51;147591.72;5064822;28;20028;-68
2023/01/17 12:25:18;;;;;;;37.20;24.33;;;;;;;1.16;90.96;147614.66;5037538;28;20093;-67
2023/01/17 12:28:22;;;;;;;43.03;24.60;;;;;;;1.20;90.75;147626.09;5078366;28;20099;-68
2023/01/17 12:31:20;;;;;;;38.70;22.77;;;;;;;1.20;90.27;147626.09;5072897;28;20093;-67
2023/01/17 12:33:52;;;;;;;35.00;23.05;;;;;;;1.20;90.61;147626.09;5064615;28;20197;-66
2023/01/17 12:36:20;;;;;;;38.35;23.35;;;;;;;1.18;90.64;147621.03;5080340;28;20048;-68
2023/01/17 12:38:47;;;;;;;38.67;24.40;;;;;;;1.09;90.55;147598.09;5084246;28;20017;-68
2023/01/17 12:41:16;;;;;;;41.35;23.63;;;;;;;1.20;90.63;147624.84;5084222;28;20179;-68
2023/01/17 12:43:43;;;;;;;36.50;22.25;;;;;;;1.24;90.67;147633.72;5062837;28;20119;-69
2023/01/17 12:46:57;;;;;;;36.25;22.10;;;;;;;1.19;90.56;147622.28;5064289;28;20041;-67
2023/01/17 12:49:46;;;;;;;43.47;23.48;;;;;;;1.25;90.05;147637.53;5052158;28;20060;-67
2023/01/17 12:52:26;;;;;;;39.90;22.48;;;;;;;1.15;90.72;147612.09;5053584;28;20183;-67
2023/01/17 12:54:58;;;;;;;37.60;22.88;;;;;;;1.20;90.27;147624.84;5054544;28;20218;-67
2023/01/17 12:57:30;;;;;;;38.95;23.90;;;;;;;1.24;90.37;147633.72;5057287;28;20026;-69